createdAt,value
2022-12-04T00:00:40.264Z,70.90
2022-12-04T00:03:44.099Z,71.65
2022-12-04T15:00:53.731Z,85.89
2022-12-04T15:04:00.221Z,84.40
2022-12-04T15:07:04.013Z,85.09
2022-12-04T15:10:38.032Z,83.62
2022-12-04T15:13:41.777Z,82.44
2022-12-04T15:16:47.004Z,82.27
2022-12-04T15:19:51.049Z,81.97
2022-12-04T15:23:12.119Z,81.59
2022-12-04T15:26:20.701Z,82.61
2022-12-04T15:29:29.078Z,82.77
2022-12-04T15:32:34.615Z,82.21
2022-12-04T15:35:43.753Z,81.59
2022-12-04T15:38:50.263Z,82.68
2022-12-04T15:42:06.030Z,81.55
2022-12-04T15:45:25.533Z,80.89
2022-12-04T15:48:32.328Z,80.59
2022-12-04T15:51:36.604Z,80.86
2022-12-04T15:54:44.155Z,81.76
2022-12-04T15:57:53.787Z,82.33
2022-12-04T16:00:59.943Z,81.61
2022-12-04T16:04:20.128Z,84.13
2022-12-04T16:07:26.137Z,81.53
2022-12-04T16:10:32.674Z,81.26
2022-12-04T16:13:38.861Z,81.41
2022-12-04T16:16:48.641Z,81.86
2022-12-04T16:19:57.259Z,80.58
2022-12-04T16:23:01.096Z,81.87
2022-12-04T16:26:05.072Z,79.53
2022-12-04T16:29:09.315Z,81.93
2022-12-04T16:32:15.379Z,83.39
2022-12-04T16:35:21.718Z,81.10
2022-12-04T16:38:25.696Z,80.33
2022-12-04T16:41:29.734Z,80.62
2022-12-04T16:44:33.761Z,82.83
2022-12-04T16:47:40.059Z,82.03
2022-12-04T16:50:46.577Z,81.49
2022-12-04T16:53:51.186Z,81.51
2022-12-04T16:56:55.274Z,80.82
2022-12-04T16:59:59.432Z,80.41
2022-12-04T17:03:05.369Z,80.87
2022-12-04T17:06:10.641Z,80.08
2022-12-04T17:09:15.566Z,81.30
2022-12-04T17:12:19.406Z,80.38
2022-12-04T17:15:23.294Z,80.63
2022-12-04T17:18:27.208Z,81.70
2022-12-04T17:21:32.835Z,82.17
2022-12-04T17:24:40.616Z,82.57
2022-12-04T17:27:49.427Z,81.65
2022-12-04T17:30:53.128Z,81.10
2022-12-04T17:33:57.832Z,82.68
2022-12-04T17:37:02.960Z,81.20
2022-12-04T17:40:07.776Z,82.67
2022-12-04T17:43:11.460Z,83.44
2022-12-04T17:46:18.932Z,82.96
2022-12-04T17:49:22.708Z,85.96
2022-12-04T17:52:29.606Z,87.39
2022-12-04T17:55:35.103Z,86.73
2022-12-04T17:58:39.643Z,83.51
2022-12-04T18:01:43.445Z,83.40
2022-12-04T18:04:47.152Z,83.24
2022-12-04T18:07:52.270Z,82.91
2022-12-04T18:10:57.086Z,80.76
2022-12-04T18:14:05.930Z,81.75
2022-12-04T18:17:12.360Z,81.10
2022-12-04T18:20:16.326Z,82.20
2022-12-04T18:23:21.396Z,80.61
2022-12-04T18:26:27.611Z,80.42
2022-12-04T18:29:31.320Z,81.49
2022-12-04T18:32:35.048Z,81.50
2022-12-04T18:35:38.754Z,81.24
2022-12-04T18:38:44.187Z,80.54
2022-12-04T18:41:48.636Z,80.47
2022-12-04T18:44:52.333Z,80.98
2022-12-04T18:47:56.062Z,80.68
2022-12-04T18:50:59.977Z,80.97
2022-12-04T18:54:07.307Z,81.70
2022-12-04T18:57:11.200Z,82.08
2022-12-04T19:00:15.522Z,81.64
2022-12-04T19:03:19.323Z,82.00
2022-12-04T19:06:28.314Z,82.33
2022-12-04T19:10:09.457Z,82.13
2022-12-04T19:12:57.597Z,82.29
2022-12-04T19:16:01.529Z,83.55
2022-12-04T19:19:06.247Z,84.25
2022-12-04T19:22:10.341Z,84.22
2022-12-04T19:25:15.524Z,83.46
2022-12-04T19:28:19.274Z,85.85
2022-12-04T19:31:27.493Z,84.43
2022-12-04T19:34:31.306Z,84.19
2022-12-04T19:37:41.231Z,83.63
2022-12-04T19:40:46.997Z,83.60
2022-12-04T19:43:52.842Z,85.42
2022-12-04T19:46:56.702Z,84.70
2022-12-04T19:50:00.580Z,83.44
2022-12-04T19:53:04.437Z,83.61
2022-12-04T19:56:12.066Z,84.05
2022-12-04T19:59:15.870Z,85.18
2022-12-04T20:02:19.837Z,83.49
2022-12-04T20:05:23.586Z,81.49
2022-12-04T20:08:27.339Z,82.20
2022-12-04T20:11:33.068Z,81.89
2022-12-04T20:14:36.771Z,81.58
2022-12-04T20:17:40.506Z,81.86
2022-12-04T20:20:45.825Z,81.43
2022-12-04T20:23:54.028Z,81.24
2022-12-04T20:26:59.319Z,81.70
2022-12-04T20:30:03.172Z,80.98
2022-12-04T20:33:07.457Z,81.10
2022-12-04T20:36:12.336Z,80.21
2022-12-04T20:39:17.752Z,80.92
2022-12-04T20:42:22.950Z,80.71
2022-12-04T20:45:26.684Z,80.74
2022-12-04T20:48:30.364Z,79.40
2022-12-04T20:51:36.030Z,80.13
2022-12-04T20:54:41.708Z,80.16
2022-12-04T20:57:47.356Z,79.67
2022-12-04T21:00:51.101Z,80.50
2022-12-04T21:03:55.360Z,79.52
2022-12-04T21:06:59.192Z,79.11
2022-12-04T21:10:03.658Z,79.67
2022-12-04T21:13:35.314Z,79.89
2022-12-04T21:16:39.246Z,78.49
2022-12-04T21:19:43.025Z,78.67
2022-12-04T21:22:47.195Z,78.54
2022-12-04T21:25:50.888Z,78.87
2022-12-04T21:28:56.200Z,77.53
2022-12-04T21:31:59.929Z,78.36
2022-12-04T21:35:03.695Z,78.11
2022-12-04T21:38:07.364Z,79.18
2022-12-04T21:41:32.338Z,77.95
2022-12-04T21:44:38.082Z,78.25
2022-12-04T21:47:41.908Z,77.10
2022-12-04T21:50:45.627Z,77.91
2022-12-04T21:53:49.345Z,78.19
2022-12-04T21:56:53.157Z,77.89
2022-12-04T21:59:58.674Z,77.30
2022-12-04T22:03:03.258Z,79.05
2022-12-04T22:06:08.036Z,78.46
2022-12-04T22:09:13.238Z,77.59
2022-12-04T22:15:44.728Z,77.80
2022-12-04T22:18:48.463Z,78.05
